createdAt,value
2019-02-16T00:01:15.723Z,101457.06
2019-02-16T00:03:45.945Z,101458.05
2019-02-16T00:06:16.355Z,101461.09
2019-02-16T00:08:46.554Z,101459.48
2019-02-16T00:11:16.808Z,101450.27
2019-02-16T00:13:47.007Z,101448.92
2019-02-16T00:16:17.218Z,101447.44
2019-02-16T00:18:47.322Z,101443.77
2019-02-16T00:21:17.564Z,101435.63
2019-02-16T00:23:47.877Z,101434.77
2019-02-16T00:26:17.977Z,101428.03
2019-02-16T00:28:48.125Z,101429.70
2019-02-16T00:31:18.350Z,101428.91
2019-02-16T00:33:48.563Z,101427.94
2019-02-16T00:36:18.669Z,101424.73
2019-02-16T00:38:48.887Z,101426.75
2019-02-16T00:41:18.978Z,101428.59
2019-02-16T00:43:49.166Z,101433.34
2019-02-16T00:46:19.570Z,101442.59
2019-02-16T00:48:50.780Z,101434.03
2019-02-16T00:51:21.135Z,101435.33
2019-02-16T00:53:51.229Z,101428.02
2019-02-16T00:56:21.466Z,101415.01
2019-02-16T00:58:51.607Z,101420.31
2019-02-16T01:01:21.837Z,101404.46
2019-02-16T01:03:52.038Z,101390.07
2019-02-16T01:06:22.299Z,101385.03
2019-02-16T01:08:52.428Z,101385.90
2019-02-16T01:11:22.691Z,101375.34
2019-02-16T01:13:52.917Z,101371.41
2019-02-16T01:16:23.171Z,101374.28
2019-02-16T01:18:53.365Z,101372.29
2019-02-16T01:21:23.613Z,101363.97
2019-02-16T01:23:53.832Z,101363.17
2019-02-16T01:26:24.078Z,101375.63
2019-02-16T01:28:54.682Z,101357.59
2019-02-16T01:31:24.988Z,101359.58
2019-02-16T01:33:55.182Z,101355.69
2019-02-16T01:36:25.441Z,101358.78
2019-02-16T01:38:55.719Z,101366.30
2019-02-16T01:41:25.956Z,101373.56
2019-02-16T01:43:56.177Z,101375.92
2019-02-16T01:46:26.418Z,101366.84
2019-02-16T01:48:56.588Z,101365.09
2019-02-16T01:51:31.968Z,101365.74
2019-02-16T01:53:58.793Z,101374.07
2019-02-16T01:56:29.038Z,101364.92
2019-02-16T01:58:59.213Z,101359.84
2019-02-16T02:01:29.465Z,101368.70
2019-02-16T02:03:59.668Z,101376.39
2019-02-16T02:06:29.909Z,101372.50
2019-02-16T02:09:00.120Z,101365.81
2019-02-16T02:11:30.370Z,101368.93
2019-02-16T02:14:00.574Z,101362.29
2019-02-16T02:16:30.716Z,101357.89
2019-02-16T02:19:00.896Z,101352.17
2019-02-16T02:21:31.137Z,101350.86
2019-02-16T02:24:01.247Z,101349.55
2019-02-16T02:26:31.407Z,101350.75
2019-02-16T02:29:01.581Z,101352.93
2019-02-16T02:31:31.742Z,101359.36
2019-02-16T02:34:01.853Z,101358.59
2019-02-16T02:36:32.078Z,101359.58
2019-02-16T02:39:02.207Z,101360.99
2019-02-16T02:41:32.433Z,101356.45
2019-02-16T02:44:02.600Z,101350.25
2019-02-16T02:46:32.742Z,101338.30
2019-02-16T02:49:03.791Z,101336.95
2019-02-16T02:51:34.123Z,101336.19
2019-02-16T02:54:04.290Z,101329.80
2019-02-16T02:56:34.411Z,101332.16
2019-02-16T02:59:04.524Z,101338.01
2019-02-16T03:01:34.780Z,101326.28
2019-02-16T03:04:04.984Z,101320.91
2019-02-16T03:06:35.140Z,101324.00
2019-02-16T03:09:05.868Z,101322.47
2019-02-16T03:11:36.108Z,101319.82
2019-02-16T03:14:06.141Z,101323.63
2019-02-16T03:16:36.301Z,101316.55
2019-02-16T03:19:06.369Z,101321.74
2019-02-16T03:21:36.628Z,101314.41
2019-02-16T03:24:06.820Z,101313.39
2019-02-16T03:26:43.258Z,101314.12
2019-02-16T03:29:22.499Z,101318.44
2019-02-16T03:32:10.799Z,101311.98
2019-02-16T03:34:56.198Z,101315.17
2019-02-16T03:37:49.254Z,101309.36
2019-02-16T03:40:19.446Z,101302.80
2019-02-16T03:42:49.690Z,101306.64
2019-02-16T03:45:19.893Z,101307.33
2019-02-16T03:47:50.136Z,101303.77
2019-02-16T03:50:21.228Z,101298.69
2019-02-16T03:52:51.555Z,101285.63
2019-02-16T03:55:21.765Z,101293.09
2019-02-16T03:57:51.987Z,101284.05
2019-02-16T04:00:22.175Z,101289.59
2019-02-16T04:02:52.418Z,101285.65
2019-02-16T04:05:22.643Z,101279.88
2019-02-16T04:07:52.869Z,101283.11
2019-02-16T04:10:22.941Z,101287.14
2019-02-16T04:12:53.187Z,101285.00
2019-02-16T04:15:23.390Z,101287.28
2019-02-16T04:17:53.546Z,101286.05
2019-02-16T04:20:23.688Z,101280.72
2019-02-16T04:22:53.941Z,101285.00
2019-02-16T04:25:24.112Z,101277.63
2019-02-16T04:27:54.301Z,101284.41
2019-02-16T04:30:24.434Z,101269.38
2019-02-16T04:32:54.684Z,101275.41
2019-02-16T04:35:24.863Z,101289.45
2019-02-16T04:37:55.023Z,101293.81
2019-02-16T04:40:25.086Z,101315.38
2019-02-16T04:42:55.323Z,101316.39
2019-02-16T04:45:25.399Z,101311.16
2019-02-16T04:47:55.632Z,101311.25
2019-02-16T04:50:26.661Z,101313.17
2019-02-16T04:52:56.988Z,101311.62
2019-02-16T04:55:27.174Z,101324.09
2019-02-16T04:57:57.366Z,101316.45
2019-02-16T05:00:27.534Z,101320.08
2019-02-16T05:02:57.688Z,101326.20
2019-02-16T05:05:27.799Z,101327.06
2019-02-16T05:07:58.026Z,101344.32
2019-02-16T05:10:28.146Z,101331.64
2019-02-16T05:12:58.308Z,101330.30
2019-02-16T05:15:28.483Z,101347.86
2019-02-16T05:17:58.660Z,101343.30
2019-02-16T05:20:28.632Z,101350.85
2019-02-16T05:22:58.789Z,101347.27
2019-02-16T05:25:29.000Z,101356.69
2019-02-16T05:27:59.132Z,101354.53
2019-02-16T05:30:29.340Z,101351.64
2019-02-16T05:32:59.586Z,101352.66
2019-02-16T05:35:29.763Z,101365.79
2019-02-16T05:37:59.994Z,101362.58
2019-02-16T05:40:30.218Z,101361.10
2019-02-16T05:43:00.461Z,101356.14
2019-02-16T05:45:30.649Z,101350.67
2019-02-16T05:48:00.936Z,101350.80
2019-02-16T05:50:32.111Z,101341.48
2019-02-16T05:53:02.449Z,101348.72
2019-02-16T05:55:32.662Z,101362.00
2019-02-16T05:58:02.909Z,101369.17
2019-02-16T06:00:33.105Z,101364.76
2019-02-16T06:03:03.356Z,101352.95
2019-02-16T06:05:33.538Z,101353.39
2019-02-16T06:08:03.818Z,101352.42
2019-02-16T06:10:33.997Z,101343.16
2019-02-16T06:13:04.150Z,101347.78
2019-02-16T06:15:34.349Z,101345.63
2019-02-16T06:18:04.605Z,101338.81
2019-02-16T06:20:34.780Z,101342.11
2019-02-16T06:23:05.052Z,101353.56
2019-02-16T06:25:35.288Z,101358.97
2019-02-16T06:28:05.524Z,101365.06
2019-02-16T06:30:35.726Z,101356.75
2019-02-16T06:33:05.906Z,101365.66
2019-02-16T06:35:37.574Z,101348.11
2019-02-16T06:38:07.813Z,101357.97
2019-02-16T06:40:37.869Z,101347.93
2019-02-16T06:43:08.033Z,101344.22
2019-02-16T06:45:38.153Z,101339.15
2019-02-16T06:48:08.356Z,101341.09
2019-02-16T06:50:39.525Z,101339.15
2019-02-16T06:53:13.313Z,101352.24
2019-02-16T06:55:45.988Z,101353.11
2019-02-16T06:58:16.162Z,101353.35
2019-02-16T07:00:46.266Z,101348.56
2019-02-16T07:03:16.359Z,101347.34
2019-02-16T07:05:46.458Z,101353.78
2019-02-16T07:08:16.664Z,101347.67
2019-02-16T07:10:46.784Z,101337.05
2019-02-16T07:13:16.940Z,101328.95
2019-02-16T07:15:48.725Z,101329.25
2019-02-16T07:18:20.521Z,101331.08
2019-02-16T07:20:50.727Z,101325.13
2019-02-16T07:23:22.777Z,101333.14
2019-02-16T07:25:52.967Z,101334.73
2019-02-16T07:28:23.126Z,101336.91
2019-02-16T07:30:53.295Z,101338.79
2019-02-16T07:33:23.485Z,101341.69
2019-02-16T07:35:53.520Z,101343.69
2019-02-16T07:38:23.770Z,101339.36
2019-02-16T07:40:53.984Z,101344.22
2019-02-16T07:43:42.083Z,101347.36
2019-02-16T07:46:16.567Z,101345.93
2019-02-16T07:48:48.312Z,101335.27
2019-02-16T07:51:37.239Z,101331.75
2019-02-16T07:54:12.108Z,101338.78
2019-02-16T07:56:46.368Z,101335.85
2019-02-16T07:59:18.221Z,101329.59
2019-02-16T08:01:49.994Z,101331.61
2019-02-16T08:04:21.789Z,101331.08
2019-02-16T08:06:56.348Z,101327.11
2019-02-16T08:09:37.109Z,101324.56
2019-02-16T08:12:11.866Z,101323.22
2019-02-16T08:14:58.953Z,101319.87
2019-02-16T08:17:30.756Z,101328.78
2019-02-16T08:20:02.572Z,101321.66
2019-02-16T08:22:34.333Z,101324.05
2019-02-16T08:25:24.450Z,101329.04
2019-02-16T08:27:56.222Z,101320.08
2019-02-16T08:30:40.003Z,101333.92
2019-02-16T08:33:28.338Z,101333.86
2019-02-16T08:36:02.819Z,101324.78
2019-02-16T08:38:37.618Z,101323.84
2019-02-16T08:41:25.532Z,101322.49
2019-02-16T08:44:00.007Z,101330.12
2019-02-16T08:46:31.813Z,101330.84
2019-02-16T08:49:03.478Z,101321.55
2019-02-16T08:51:36.222Z,101331.02
2019-02-16T08:54:13.532Z,101333.54
2019-02-16T08:56:57.410Z,101335.88
2019-02-16T08:59:29.171Z,101336.84
2019-02-16T09:02:04.067Z,101342.07
2019-02-16T09:04:42.024Z,101348.23
2019-02-16T09:07:23.078Z,101346.28
2019-02-16T09:10:03.822Z,101353.16
2019-02-16T09:12:44.022Z,101341.72
2019-02-16T09:15:21.668Z,101344.05
2019-02-16T09:17:56.446Z,101355.45
2019-02-16T09:20:44.170Z,101350.48
2019-02-16T09:23:24.779Z,101351.98
2019-02-16T09:26:14.514Z,101355.48
2019-02-16T09:28:46.197Z,101361.27
2019-02-16T09:31:20.924Z,101367.16
2019-02-16T09:34:08.798Z,101363.41
2019-02-16T09:36:43.415Z,101356.53
2019-02-16T09:39:31.395Z,101357.81
2019-02-16T09:42:03.082Z,101363.56
2019-02-16T09:44:51.317Z,101366.31
2019-02-16T09:47:23.085Z,101357.06
2019-02-16T09:50:03.826Z,101361.55
2019-02-16T09:52:39.176Z,101363.94
2019-02-16T09:55:10.999Z,101369.55
2019-02-16T09:57:42.874Z,101368.20
2019-02-16T10:00:17.388Z,101369.44
2019-02-16T10:02:55.070Z,101366.82
2019-02-16T10:05:26.885Z,101359.23
2019-02-16T10:07:58.650Z,101362.13
2019-02-16T10:10:30.447Z,101365.55
2019-02-16T10:13:02.220Z,101370.08
2019-02-16T10:15:45.889Z,101366.13
2019-02-16T10:18:20.385Z,101358.20
2019-02-16T10:20:54.945Z,101363.75
2019-02-16T10:23:43.105Z,101363.64
2019-02-16T10:26:14.906Z,101366.66
2019-02-16T10:28:55.818Z,101363.58
2019-02-16T10:31:30.076Z,101365.14
2019-02-16T10:34:01.839Z,101357.58
2019-02-16T10:36:33.578Z,101356.39
2019-02-16T10:39:08.211Z,101360.17
2019-02-16T10:41:42.993Z,101357.26
2019-02-16T10:44:17.692Z,101353.95
2019-02-16T10:46:51.967Z,101344.30
2019-02-16T10:49:29.759Z,101346.17
2019-02-16T10:52:10.501Z,101338.92
2019-02-16T10:54:51.118Z,101343.08
2019-02-16T10:57:38.455Z,101343.97
2019-02-16T11:00:19.687Z,101346.83
2019-02-16T11:02:51.483Z,101351.52
2019-02-16T11:05:35.410Z,101353.02
2019-02-16T11:08:16.054Z,101352.97
2019-02-16T11:10:59.598Z,101348.01
2019-02-16T11:13:34.531Z,101351.84
2019-02-16T11:16:08.988Z,101346.30
2019-02-16T11:18:58.119Z,101356.75
2019-02-16T11:21:29.901Z,101348.65
2019-02-16T11:24:10.518Z,101355.89
2019-02-16T11:26:57.597Z,101355.05
2019-02-16T11:29:38.389Z,101353.52
2019-02-16T11:32:26.487Z,101363.36
2019-02-16T11:35:04.321Z,101362.97
2019-02-16T11:37:38.818Z,101360.43
2019-02-16T11:40:13.117Z,101371.36
2019-02-16T11:42:53.747Z,101372.50
2019-02-16T11:45:40.893Z,101361.25
2019-02-16T11:48:15.711Z,101364.57
2019-02-16T11:50:47.528Z,101364.88
2019-02-16T11:53:22.221Z,101358.78
2019-02-16T11:56:00.710Z,101365.77
2019-02-16T11:58:35.178Z,101360.02
2019-02-16T12:01:07.127Z,101369.72
2019-02-16T12:03:38.891Z,101368.17
2019-02-16T12:06:10.706Z,101373.16
2019-02-16T12:08:45.172Z,101369.34
2019-02-16T12:11:23.179Z,101377.55
2019-02-16T12:13:54.920Z,101370.77
2019-02-16T12:16:26.704Z,101378.63
2019-02-16T12:18:58.440Z,101378.61
2019-02-16T12:21:39.564Z,101376.07
2019-02-16T12:24:29.376Z,101369.14
2019-02-16T12:27:09.945Z,101360.89
2019-02-16T12:29:50.517Z,101357.97
2019-02-16T12:32:22.320Z,101363.98
2019-02-16T12:35:03.096Z,101364.12
2019-02-16T12:37:34.923Z,101366.83
2019-02-16T12:40:20.403Z,101363.02
2019-02-16T12:42:55.124Z,101366.58
2019-02-16T12:45:26.890Z,101355.89
2019-02-16T12:48:04.114Z,101359.88
2019-02-16T12:50:35.936Z,101356.21
2019-02-16T12:53:19.940Z,101364.93
2019-02-16T12:56:00.795Z,101365.41
2019-02-16T12:58:33.488Z,101362.48
2019-02-16T13:01:05.154Z,101366.58
2019-02-16T13:03:46.321Z,101359.11
2019-02-16T13:06:24.025Z,101361.95
2019-02-16T13:09:11.049Z,101359.63
2019-02-16T13:11:45.378Z,101366.73
2019-02-16T13:14:19.878Z,101364.42
2019-02-16T13:17:10.008Z,101369.00
2019-02-16T13:19:44.640Z,101377.36
2019-02-16T13:22:16.413Z,101379.59
2019-02-16T13:24:50.901Z,101378.02
2019-02-16T13:27:37.507Z,101380.04
2019-02-16T13:30:10.146Z,101378.64
2019-02-16T13:32:47.882Z,101376.15
2019-02-16T13:35:19.713Z,101382.89
2019-02-16T13:37:54.171Z,101384.17
2019-02-16T13:40:38.178Z,101378.04
2019-02-16T13:43:28.039Z,101372.33
2019-02-16T13:46:08.704Z,101365.34
2019-02-16T13:48:43.284Z,101360.70
2019-02-16T13:51:24.041Z,101364.04
2019-02-16T13:53:55.802Z,101367.65
2019-02-16T13:56:45.736Z,101368.08
2019-02-16T13:59:18.421Z,101377.42
2019-02-16T14:01:56.233Z,101374.35
2019-02-16T14:04:43.330Z,101370.77
2019-02-16T14:07:15.147Z,101374.90
2019-02-16T14:10:03.195Z,101369.30
2019-02-16T14:12:35.018Z,101356.34
2019-02-16T14:15:26.451Z,101360.61
2019-02-16T14:17:56.706Z,101358.45
2019-02-16T14:20:26.882Z,101364.52
2019-02-16T14:22:57.058Z,101356.07
2019-02-16T14:25:28.819Z,101361.52
2019-02-16T14:27:59.083Z,101357.09
2019-02-16T14:30:29.283Z,101355.31
2019-02-16T14:32:59.451Z,101354.16
2019-02-16T14:35:29.639Z,101347.73
2019-02-16T14:38:19.544Z,101352.75
2019-02-16T14:40:49.434Z,101351.55
2019-02-16T14:43:19.610Z,101350.75
2019-02-16T14:45:49.800Z,101347.22
2019-02-16T14:48:20.044Z,101338.78
2019-02-16T14:50:50.251Z,101340.43
2019-02-16T14:53:20.416Z,101348.73
2019-02-16T14:55:54.130Z,101337.57
2019-02-16T14:58:22.458Z,101341.55
2019-02-16T15:00:53.628Z,101343.64
2019-02-16T15:03:23.878Z,101348.66
2019-02-16T15:05:54.190Z,101336.01
2019-02-16T15:08:24.448Z,101328.26
2019-02-16T15:10:54.521Z,101333.78
2019-02-16T15:13:24.625Z,101336.62
2019-02-16T15:15:54.759Z,101346.73
2019-02-16T15:18:25.011Z,101343.68
2019-02-16T15:20:55.206Z,101350.35
2019-02-16T15:23:25.666Z,101354.64
2019-02-16T15:26:01.174Z,101343.03
2019-02-16T15:28:27.792Z,101349.01
2019-02-16T15:30:58.019Z,101351.90
2019-02-16T15:33:28.269Z,101344.05
2019-02-16T15:35:58.440Z,101350.80
2019-02-16T15:38:28.691Z,101355.00
2019-02-16T15:40:58.911Z,101357.11
2019-02-16T15:43:29.185Z,101355.69
2019-02-16T15:45:59.395Z,101363.09
2019-02-16T15:48:29.663Z,101361.52
2019-02-16T15:50:59.882Z,101362.34
2019-02-16T15:53:30.140Z,101362.30
2019-02-16T15:56:00.357Z,101360.12
2019-02-16T15:58:33.617Z,101361.84
2019-02-16T16:01:10.125Z,101352.03
2019-02-16T16:04:02.047Z,101355.28
2019-02-16T16:06:40.566Z,101367.28
2019-02-16T16:09:25.244Z,101347.67
2019-02-16T16:12:03.871Z,101347.56
2019-02-16T16:14:45.620Z,101348.33
2019-02-16T16:17:42.599Z,101345.27
2019-02-16T16:20:35.682Z,101347.86
2019-02-16T16:23:32.216Z,101360.42
2019-02-16T16:26:24.066Z,101360.93
2019-02-16T16:29:22.053Z,101365.28
2019-02-16T16:31:53.583Z,101364.12
2019-02-16T16:34:35.266Z,101361.69
2019-02-16T16:37:12.234Z,101364.83
2019-02-16T16:39:47.333Z,101362.19
2019-02-16T16:42:26.284Z,101359.00
2019-02-16T16:45:02.025Z,101372.20
2019-02-16T16:47:44.313Z,101368.98
2019-02-16T16:50:38.468Z,101373.23
2019-02-16T16:53:11.717Z,101361.91
2019-02-16T16:55:47.206Z,101369.06
2019-02-16T16:58:37.002Z,101364.84
2019-02-16T17:01:33.765Z,101371.09
2019-02-16T17:04:45.950Z,101372.14
2019-02-16T17:07:31.738Z,101371.53
2019-02-16T17:10:11.947Z,101373.06
2019-02-16T17:13:04.906Z,101372.95
2019-02-16T17:15:42.287Z,101373.78
2019-02-16T17:18:41.973Z,101371.53
2019-02-16T17:21:49.174Z,101370.38
2019-02-16T17:25:12.012Z,101373.58
2019-02-16T17:28:02.846Z,101371.95
2019-02-16T17:30:35.019Z,101368.58
2019-02-16T17:33:21.716Z,101365.38
2019-02-16T17:36:02.519Z,101366.72
2019-02-16T17:38:48.314Z,101367.49
2019-02-16T17:41:41.073Z,101362.34
2019-02-16T17:44:32.979Z,101363.47
2019-02-16T17:47:16.813Z,101362.50
2019-02-16T17:50:26.325Z,101357.98
2019-02-16T17:56:46.819Z,101353.16
2019-02-16T17:59:23.456Z,101355.98
2019-02-16T18:02:11.649Z,101349.73
2019-02-16T18:05:04.970Z,101346.36
2019-02-16T18:07:44.712Z,101358.98
2019-02-16T18:10:44.584Z,101358.81
2019-02-16T18:13:26.441Z,101361.42
2019-02-16T18:16:22.628Z,101358.95
2019-02-16T18:18:46.373Z,101357.66
2019-02-16T18:21:29.027Z,101360.75
2019-02-16T18:24:14.881Z,101361.25
2019-02-16T18:27:06.318Z,101363.51
2019-02-16T18:29:55.628Z,101361.91
2019-02-16T18:32:48.009Z,101360.23
2019-02-16T18:35:51.200Z,101353.08
2019-02-16T18:38:31.737Z,101349.27
2019-02-16T18:41:12.016Z,101342.19
2019-02-16T18:43:56.660Z,101348.34
2019-02-16T18:46:57.000Z,101338.45
2019-02-16T18:49:41.558Z,101336.38
2019-02-16T18:55:20.222Z,101337.25
2019-02-16T18:58:11.277Z,101346.33
2019-02-16T19:00:59.661Z,101343.17
2019-02-16T19:06:59.642Z,101330.70
2019-02-16T19:09:50.501Z,101337.14
2019-02-16T19:12:37.191Z,101339.12
2019-02-16T19:15:37.137Z,101344.48
2019-02-16T19:18:13.052Z,101337.72
2019-02-16T19:20:48.085Z,101341.70
2019-02-16T19:23:19.828Z,101347.11
2019-02-16T19:25:57.270Z,101344.02
2019-02-16T19:28:31.723Z,101343.52
2019-02-16T19:31:05.068Z,101344.80
2019-02-16T19:33:45.229Z,101345.64
2019-02-16T19:36:19.754Z,101343.59
2019-02-16T19:38:54.296Z,101346.14
2019-02-16T19:41:31.968Z,101340.52
2019-02-16T19:44:03.651Z,101339.89
2019-02-16T19:46:38.444Z,101343.13
2019-02-16T19:49:21.886Z,101339.50
2019-02-16T19:51:59.478Z,101333.98
2019-02-16T19:54:31.259Z,101338.23
2019-02-16T19:57:26.672Z,101333.86
2019-02-16T20:00:10.110Z,101340.75
2019-02-16T20:02:44.643Z,101332.93
2019-02-16T20:05:16.430Z,101335.75
2019-02-16T20:07:51.279Z,101344.41
2019-02-16T20:10:29.131Z,101331.99
2019-02-16T20:13:00.958Z,101330.22
2019-02-16T20:15:49.047Z,101327.45
2019-02-16T20:18:20.864Z,101320.09
2019-02-16T20:20:52.644Z,101314.30
2019-02-16T20:23:24.452Z,101315.42
2019-02-16T20:25:59.230Z,101316.41
2019-02-16T20:28:31.034Z,101315.75
2019-02-16T20:31:02.820Z,101308.78
2019-02-16T20:33:40.662Z,101307.11
2019-02-16T20:36:24.433Z,101301.23
2019-02-16T20:38:59.245Z,101299.02
2019-02-16T20:41:30.998Z,101300.79
2019-02-16T20:44:11.826Z,101301.30
2019-02-16T20:46:49.481Z,101293.82
2019-02-16T20:49:30.064Z,101293.97
2019-02-16T20:52:01.828Z,101289.64
2019-02-16T20:54:36.114Z,101281.85
2019-02-16T20:57:13.809Z,101283.17
2019-02-16T20:59:48.575Z,101280.23
2019-02-16T21:02:23.185Z,101279.33
2019-02-16T21:04:57.861Z,101278.42
2019-02-16T21:07:29.630Z,101279.64
2019-02-16T21:10:08.377Z,101278.13
2019-02-16T21:12:40.233Z,101271.77
2019-02-16T21:15:11.965Z,101272.77
2019-02-16T21:17:49.725Z,101266.92
2019-02-16T21:20:21.537Z,101265.97
2019-02-16T21:22:59.447Z,101259.09
2019-02-16T21:25:34.027Z,101261.06
2019-02-16T21:28:08.634Z,101266.92
2019-02-16T21:30:40.368Z,101258.25
2019-02-16T21:33:14.815Z,101256.05
2019-02-16T21:35:55.742Z,101253.81
2019-02-16T21:38:43.765Z,101253.66
2019-02-16T21:41:21.574Z,101254.56
2019-02-16T21:43:53.282Z,101250.67
2019-02-16T21:46:27.820Z,101258.34
2019-02-16T21:48:59.452Z,101257.69
2019-02-16T21:51:49.749Z,101249.59
2019-02-16T21:54:36.855Z,101248.93
2019-02-16T21:57:08.590Z,101244.53
2019-02-16T21:59:55.444Z,101246.39
2019-02-16T22:02:27.245Z,101240.80
2019-02-16T22:05:08.260Z,101249.19
2019-02-16T22:07:45.949Z,101246.08
2019-02-16T22:10:20.964Z,101242.20
2019-02-16T22:13:09.480Z,101249.05
2019-02-16T22:15:39.678Z,101239.67
2019-02-16T22:18:09.935Z,101243.11
2019-02-16T22:20:40.005Z,101234.75
2019-02-16T22:23:10.258Z,101236.45
2019-02-16T22:25:40.468Z,101227.49
2019-02-16T22:28:18.181Z,101230.48
2019-02-16T22:30:42.604Z,101225.64
2019-02-16T22:33:12.839Z,101217.48
2019-02-16T22:35:43.337Z,101221.40
2019-02-16T22:38:13.575Z,101220.77
2019-02-16T22:40:43.793Z,101221.38
2019-02-16T22:43:14.058Z,101209.37
2019-02-16T22:45:44.274Z,101212.27
2019-02-16T22:48:14.524Z,101205.69
2019-02-16T22:50:44.727Z,101208.70
2019-02-16T22:53:14.969Z,101210.95
2019-02-16T22:55:45.161Z,101213.16
2019-02-16T22:58:15.443Z,101208.77
2019-02-16T23:00:47.228Z,101212.73
2019-02-16T23:03:17.472Z,101203.72
2019-02-16T23:05:47.687Z,101205.19
2019-02-16T23:08:17.870Z,101205.25
2019-02-16T23:10:49.151Z,101212.15
2019-02-16T23:13:19.485Z,101204.69
2019-02-16T23:15:49.615Z,101206.29
2019-02-16T23:18:19.870Z,101203.67
2019-02-16T23:20:50.125Z,101203.98
2019-02-16T23:23:20.346Z,101195.61
2019-02-16T23:25:50.467Z,101192.87
2019-02-16T23:28:20.546Z,101200.55
2019-02-16T23:30:50.736Z,101202.20
2019-02-16T23:33:20.957Z,101198.27
2019-02-16T23:35:51.146Z,101200.02
2019-02-16T23:38:21.381Z,101199.00
2019-02-16T23:40:51.487Z,101201.08
2019-02-16T23:43:21.637Z,101195.27
2019-02-16T23:45:51.684Z,101204.44
2019-02-16T23:48:21.922Z,101199.66
2019-02-16T23:50:52.083Z,101193.48
2019-02-16T23:53:22.337Z,101198.38
2019-02-16T23:55:52.498Z,101193.59
2019-02-16T23:58:22.662Z,101193.84
